CheckWX is a tool to help pilots better visualize weather data.  It is not intended as a substitute for an official pre-flight weather briefing.

17:02:29 UTC

VCRI TAF
Mattala Rajapaksa International Airport
Sri Lanka
TAF VCRI 181100Z 1812/1918 24010G20KT 9999 FEW018 TX34/1907Z TN27/1900Z BECMG 1813/1815 23010KT BECMG 1904/1906 24015G30KT PROB30 TEMPO 1904/1910 7000 -SHRA SCT016 FEW020CB BECMG 1913/1915 24010KT

Jun-18@
12:00 UTC

Jun-18 @ 12:00 UTC

Jun-18@
13:00 UTC

Jun-18 @ 13:00 UTC

TAF VCRI 181100Z 1812/1918 24010G20KT 9999 FEW018 TX34/1907Z TN27/1900Z

Expired

Wind
  • 240° at 10 KTS
  • {Gusting to 20 KTS
Cloud Levels
  • Few at 1,800' AGL

Jun-18@
13:00 UTC

Jun-18 @ 13:00 UTC

Jun-19@
04:00 UTC

Jun-19 @ 04:00 UTC

BECMG 1813/1815 23010KT

Becoming

Becoming Conditions expected by Tue, Jun 18, 2019 @ 15:00 UTC

Wind
  • 230° at 10 KTS
Cloud Levels
  • Few at 1,800' AGL

Jun-19@
04:00 UTC

Jun-19 @ 04:00 UTC

Jun-19@
10:00 UTC

Jun-19 @ 10:00 UTC

PROB30 TEMPO 1904/1910 7000 -SHRA SCT016 FEW020CB

Temporary - 30% Likelihood

Temporary - 30% Likelihood during this time.

Conditions
Light Rain
Cloud Levels
  • Scattered at 1,600' AGL
  • Few at 2,000' AGL

Jun-19@
04:00 UTC

Jun-19 @ 04:00 UTC

Jun-19@
13:00 UTC

Jun-19 @ 13:00 UTC

BECMG 1904/1906 24015G30KT

Becoming

Becoming Conditions expected by Wed, Jun 19, 2019 @ 06:00 UTC

Wind
  • 240° at 15 KTS
  • {Gusting to 30 KTS
Cloud Levels
  • Few at 1,800' AGL

Jun-19@
13:00 UTC

Jun-19 @ 13:00 UTC

Jun-19@
18:00 UTC

Jun-19 @ 18:00 UTC

BECMG 1913/1915 24010KT

Becoming

Becoming Conditions expected by Wed, Jun 19, 2019 @ 15:00 UTC

Wind
  • 240° at 10 KTS
Cloud Levels
  • Few at 1,800' AGL